createdAt,value
2023-03-02T00:02:32.598Z,22.70
2023-03-02T00:05:24.601Z,21.10
2023-03-02T00:08:17.522Z,20.80
2023-03-02T00:11:09.236Z,21.37
2023-03-02T00:14:00.899Z,20.65
2023-03-02T00:16:52.396Z,22.00
2023-03-02T00:19:45.026Z,20.48
2023-03-02T00:22:36.586Z,21.70
2023-03-02T00:25:28.956Z,20.75
2023-03-02T00:28:32.459Z,21.12
2023-03-02T00:31:24.940Z,21.77
2023-03-02T00:34:17.130Z,20.80
2023-03-02T00:37:09.270Z,21.95
2023-03-02T00:40:00.879Z,21.02
2023-03-02T00:42:52.342Z,20.77
2023-03-02T00:45:43.948Z,21.12
2023-03-02T00:48:35.240Z,21.55
2023-03-02T00:51:26.433Z,21.07
2023-03-02T00:54:17.577Z,21.55
2023-03-02T00:57:09.063Z,21.33
2023-03-02T01:00:00.879Z,21.23
2023-03-02T01:02:54.067Z,22.00
2023-03-02T01:05:47.252Z,20.85
2023-03-02T01:08:38.758Z,20.15
2023-03-02T01:11:31.826Z,21.48
2023-03-02T01:14:23.789Z,21.97
2023-03-02T01:17:16.212Z,21.57
2023-03-02T01:20:11.014Z,20.80
2023-03-02T01:23:02.272Z,20.50
2023-03-02T01:25:53.713Z,21.62
2023-03-02T01:28:45.300Z,21.70
2023-03-02T01:31:37.143Z,20.60
2023-03-02T01:34:28.955Z,21.05
2023-03-02T01:37:20.859Z,22.05
2023-03-02T01:40:16.156Z,21.62
2023-03-02T01:43:14.689Z,21.35
2023-03-02T01:46:09.845Z,21.73
2023-03-02T01:49:07.834Z,21.68
2023-03-02T01:52:14.127Z,20.95
2023-03-02T01:55:08.761Z,20.48
2023-03-02T01:58:01.981Z,22.87
2023-03-02T02:00:56.269Z,21.60
2023-03-02T02:03:51.297Z,21.65
2023-03-02T02:06:45.917Z,22.82
2023-03-02T02:09:40.535Z,21.68
2023-03-02T02:12:32.269Z,21.95
2023-03-02T02:15:24.199Z,21.45
2023-03-02T02:18:15.576Z,22.13
2023-03-02T02:21:17.104Z,22.05
2023-03-02T02:24:10.880Z,16.60
2023-03-02T02:27:02.531Z,21.68
2023-03-02T02:29:56.440Z,21.45
2023-03-02T02:32:50.011Z,20.60
2023-03-02T02:35:42.438Z,22.17
2023-03-02T02:38:35.941Z,22.00
2023-03-02T02:41:31.143Z,22.35
2023-03-02T02:44:22.613Z,22.55
2023-03-02T02:47:19.458Z,21.60
2023-03-02T02:50:18.651Z,22.27
2023-03-02T02:53:13.896Z,22.70
2023-03-02T02:56:07.932Z,21.82
2023-03-02T02:59:06.932Z,21.37
2023-03-02T03:01:59.278Z,22.07
2023-03-02T03:04:56.246Z,21.90
2023-03-02T03:07:47.649Z,21.82
2023-03-02T03:10:42.465Z,21.73
2023-03-02T03:13:36.323Z,21.48
2023-03-02T03:16:30.703Z,22.13
2023-03-02T03:19:25.100Z,21.68
2023-03-02T03:22:18.823Z,21.25
2023-03-02T03:25:14.574Z,21.30
2023-03-02T03:28:07.162Z,22.20
2023-03-02T03:31:08.524Z,20.83
2023-03-02T03:33:59.043Z,21.68
2023-03-02T03:52:49.072Z,21.62
2023-03-02T03:55:41.958Z,23.10
2023-03-02T03:58:33.924Z,21.80
2023-03-02T04:01:27.300Z,21.17
2023-03-02T04:04:21.147Z,21.35
2023-03-02T04:07:13.092Z,22.42
2023-03-02T04:10:08.913Z,22.17
2023-03-02T04:13:01.968Z,22.87
2023-03-02T04:15:53.931Z,22.07
2023-03-02T04:18:45.552Z,22.93
2023-03-02T04:21:36.961Z,22.50
2023-03-02T04:24:28.360Z,22.48
2023-03-02T04:27:21.885Z,20.88
2023-03-02T04:30:16.450Z,22.35
2023-03-02T04:33:08.843Z,22.22
2023-03-02T04:36:00.539Z,23.02
2023-03-02T04:38:53.242Z,22.17
2023-03-02T04:41:45.163Z,21.70
2023-03-02T04:44:36.857Z,22.32
2023-03-02T04:47:28.268Z,22.27
2023-03-02T04:50:19.785Z,23.50
2023-03-02T04:53:12.234Z,22.25
2023-03-02T04:56:05.813Z,22.20
2023-03-02T04:58:57.944Z,22.32
2023-03-02T05:01:50.054Z,22.48
2023-03-02T05:04:42.544Z,22.35
2023-03-02T05:07:33.955Z,21.60
2023-03-02T05:10:26.691Z,22.15
2023-03-02T05:13:20.418Z,22.77
2023-03-02T05:16:11.958Z,21.90
2023-03-02T05:19:04.418Z,21.87
2023-03-02T05:21:56.682Z,21.55
2023-03-02T05:24:48.291Z,22.30
2023-03-02T05:27:39.872Z,22.27
2023-03-02T05:30:32.764Z,22.35
2023-03-02T05:33:35.608Z,22.45
2023-03-02T05:36:20.751Z,21.23
2023-03-02T05:39:12.901Z,22.25
2023-03-02T05:42:06.061Z,22.00
2023-03-02T05:44:57.801Z,22.75
2023-03-02T05:47:49.566Z,23.35
2023-03-02T05:50:41.135Z,23.15
2023-03-02T05:56:12.824Z,21.97
2023-03-02T05:59:03.970Z,22.52
2023-03-02T06:01:57.526Z,23.07
2023-03-02T06:04:49.291Z,22.93
2023-03-02T06:07:41.308Z,21.55
2023-03-02T06:10:33.142Z,22.55
2023-03-02T06:13:24.786Z,21.85
2023-03-02T06:16:16.515Z,23.55
2023-03-02T06:19:09.029Z,22.65
2023-03-02T06:22:01.484Z,23.10
2023-03-02T06:24:54.252Z,23.47
2023-03-02T06:27:46.026Z,22.50
2023-03-02T06:30:38.154Z,22.27
2023-03-02T06:33:30.838Z,22.87
2023-03-02T06:36:22.690Z,22.55
2023-03-02T06:39:16.930Z,22.87
2023-03-02T06:42:08.528Z,22.93
2023-03-02T06:45:18.685Z,21.85
2023-03-02T06:48:10.842Z,22.73
2023-03-02T06:51:02.197Z,22.65
2023-03-02T06:53:53.953Z,22.37
2023-03-02T06:59:35.632Z,22.58
2023-03-02T07:02:27.159Z,22.93
2023-03-02T07:05:44.556Z,22.32
2023-03-02T07:08:13.462Z,23.32
2023-03-02T07:11:10.764Z,23.50
2023-03-02T07:14:03.885Z,23.60
2023-03-02T07:16:57.025Z,22.77
2023-03-02T07:19:48.785Z,23.98
2023-03-02T07:22:40.450Z,23.05
2023-03-02T07:25:32.917Z,23.77
2023-03-02T07:28:24.660Z,23.20
2023-03-02T07:31:16.325Z,21.85
2023-03-02T07:34:08.171Z,23.10
2023-03-02T07:36:59.506Z,23.02
2023-03-02T07:39:51.548Z,23.73
2023-03-02T07:42:43.213Z,23.35
2023-03-02T07:45:34.626Z,23.47
2023-03-02T07:48:26.348Z,23.42
2023-03-02T07:51:17.756Z,24.47
2023-03-02T07:54:12.257Z,23.50
2023-03-02T07:57:03.649Z,23.30
2023-03-02T07:59:55.623Z,24.72
2023-03-02T08:02:47.362Z,23.80
2023-03-02T08:05:39.297Z,24.77
2023-03-02T08:08:33.341Z,24.10
2023-03-02T08:11:25.344Z,25.75
2023-03-02T08:14:16.972Z,24.52
2023-03-02T08:17:09.423Z,25.15
2023-03-02T08:20:00.741Z,25.30
2023-03-02T08:22:53.380Z,23.98
2023-03-02T08:25:45.730Z,24.35
2023-03-02T08:28:37.863Z,25.27
2023-03-02T08:31:29.927Z,25.17
2023-03-02T08:34:41.206Z,24.43
2023-03-02T08:37:33.153Z,23.85
2023-03-02T08:40:28.004Z,24.67
2023-03-02T08:43:19.750Z,23.55
2023-03-02T08:46:12.576Z,24.30
2023-03-02T08:49:05.794Z,24.52
2023-03-02T08:51:57.467Z,25.15
2023-03-02T08:54:49.127Z,25.45
2023-03-02T08:57:44.144Z,24.60
2023-03-02T09:00:39.223Z,25.17
2023-03-02T09:03:32.711Z,26.77
2023-03-02T09:06:24.192Z,24.10
2023-03-02T09:09:18.042Z,25.00
2023-03-02T09:12:09.891Z,25.60
2023-03-02T09:15:01.704Z,25.17
2023-03-02T09:17:53.774Z,25.12
2023-03-02T09:20:49.372Z,26.15
2023-03-02T09:23:41.208Z,25.45
2023-03-02T09:26:38.294Z,25.72
2023-03-02T09:29:37.125Z,24.92
2023-03-02T09:32:29.155Z,25.92
2023-03-02T09:35:20.932Z,25.57
2023-03-02T09:38:14.921Z,26.07
2023-03-02T09:41:32.362Z,23.92
2023-03-02T09:44:45.142Z,26.00
2023-03-02T09:47:47.836Z,24.32
2023-03-02T09:50:41.590Z,24.63
2023-03-02T09:53:48.110Z,24.20
2023-03-02T09:56:42.829Z,24.60
2023-03-02T09:59:40.509Z,24.17
2023-03-02T10:02:33.873Z,24.25
2023-03-02T10:05:28.825Z,24.80
2023-03-02T10:08:26.930Z,24.10
2023-03-02T10:14:15.977Z,23.67
2023-03-02T10:17:20.827Z,23.77
2023-03-02T10:20:19.431Z,24.90
2023-03-02T10:23:20.495Z,24.20
2023-03-02T10:54:14.723Z,24.18
2023-03-02T10:57:08.824Z,23.60
2023-03-02T11:00:05.268Z,24.55
2023-03-02T11:03:01.155Z,25.43
2023-03-02T11:05:53.146Z,24.98
2023-03-02T11:08:46.518Z,24.87
2023-03-02T11:11:38.178Z,24.57
2023-03-02T11:14:29.739Z,24.67
2023-03-02T11:17:38.405Z,23.65
2023-03-02T11:20:43.387Z,24.92
2023-03-02T11:23:50.367Z,23.40
2023-03-02T11:26:47.631Z,25.35
2023-03-02T11:44:03.488Z,22.87
2023-03-02T11:46:59.417Z,24.80
2023-03-02T11:49:55.728Z,24.27
2023-03-02T11:52:52.194Z,23.95
2023-03-02T12:12:42.670Z,22.65
2023-03-02T12:15:43.635Z,23.42
2023-03-02T12:18:49.197Z,22.37
2023-03-02T12:21:44.274Z,21.48
2023-03-02T12:24:37.902Z,21.00
2023-03-02T12:27:31.631Z,23.20
2023-03-02T12:30:30.796Z,21.52
2023-03-02T12:33:23.615Z,23.30
2023-03-02T12:36:20.320Z,22.07
2023-03-02T12:39:18.762Z,22.48
2023-03-02T12:42:36.146Z,22.52
2023-03-02T12:45:45.629Z,23.00
2023-03-02T12:48:42.453Z,21.97
2023-03-02T12:51:39.194Z,19.40
2023-03-02T12:57:52.858Z,22.45
2023-03-02T13:00:49.806Z,12.65
2023-03-02T13:03:47.688Z,18.32
2023-03-02T13:06:42.330Z,18.15
2023-03-02T13:09:34.414Z,19.40
2023-03-02T13:12:31.037Z,20.17
2023-03-02T13:15:22.756Z,19.87
2023-03-02T13:18:15.481Z,20.15
2023-03-02T13:21:13.012Z,21.50
2023-03-02T13:24:05.135Z,20.70
2023-03-02T13:26:59.715Z,21.52
2023-03-02T13:29:52.983Z,21.55
2023-03-02T13:32:45.034Z,21.35
2023-03-02T13:35:38.650Z,20.37
2023-03-02T13:38:33.451Z,20.60
2023-03-02T13:41:26.300Z,21.30
2023-03-02T13:44:24.898Z,20.80
2023-03-02T13:47:24.762Z,20.08
2023-03-02T13:50:23.071Z,20.77
2023-03-02T13:53:15.128Z,19.92
2023-03-02T13:56:07.226Z,20.68
2023-03-02T13:58:59.342Z,20.70
2023-03-02T14:01:51.751Z,20.27
2023-03-02T14:04:43.442Z,20.75
2023-03-02T14:07:35.797Z,19.62
2023-03-02T14:10:30.645Z,19.07
2023-03-02T14:13:25.613Z,19.60
2023-03-02T14:16:18.241Z,19.52
2023-03-02T14:19:11.342Z,20.10
2023-03-02T14:22:03.112Z,19.60
2023-03-02T14:24:57.996Z,20.08
2023-03-02T14:27:49.781Z,18.80
2023-03-02T14:30:44.354Z,20.48
2023-03-02T14:33:36.791Z,20.43
2023-03-02T14:36:32.075Z,20.02
2023-03-02T14:42:06.450Z,21.23
2023-03-02T14:44:59.754Z,19.27
2023-03-02T14:47:51.396Z,20.68
2023-03-02T14:50:45.771Z,20.00
2023-03-02T14:53:37.911Z,20.88
2023-03-02T14:56:29.650Z,20.32
2023-03-02T14:59:20.863Z,19.10
2023-03-02T15:02:24.883Z,20.40
2023-03-02T15:05:07.470Z,18.95
2023-03-02T15:07:59.100Z,19.17
2023-03-02T15:10:51.838Z,18.95
2023-03-02T15:13:45.663Z,19.67
2023-03-02T15:16:36.840Z,18.23
2023-03-02T15:19:28.339Z,17.62
2023-03-02T15:22:21.850Z,19.40
2023-03-02T15:27:53.617Z,18.55
2023-03-02T15:30:45.541Z,18.67
2023-03-02T15:33:37.617Z,17.65
2023-03-02T15:36:29.378Z,19.10
2023-03-02T15:39:21.036Z,18.48
2023-03-02T15:42:14.065Z,18.05
2023-03-02T15:45:09.008Z,16.90
2023-03-02T15:48:00.588Z,16.97
2023-03-02T15:51:00.374Z,17.10
2023-03-02T15:53:52.008Z,16.62
2023-03-02T15:57:01.154Z,17.98
2023-03-02T15:59:52.344Z,15.95
2023-03-02T16:02:44.128Z,15.78
2023-03-02T16:05:35.660Z,17.92
2023-03-02T16:08:27.251Z,17.77
2023-03-02T16:11:20.204Z,16.60
2023-03-02T16:14:14.291Z,16.90
2023-03-02T16:17:06.181Z,17.50
2023-03-02T16:19:57.970Z,17.48
2023-03-02T16:22:49.694Z,15.45
2023-03-02T16:25:44.568Z,16.45
2023-03-02T16:28:36.419Z,12.20
2023-03-02T16:31:29.366Z,16.85
2023-03-02T16:34:20.829Z,15.95
2023-03-02T16:37:13.304Z,17.42
2023-03-02T16:40:05.083Z,16.65
2023-03-02T16:42:57.005Z,17.00
2023-03-02T16:45:50.115Z,16.45
2023-03-02T16:48:41.669Z,17.30
2023-03-02T16:51:33.422Z,16.67
2023-03-02T16:54:25.543Z,15.85
2023-03-02T16:57:17.220Z,16.73
2023-03-02T17:00:12.341Z,16.37
2023-03-02T17:03:03.945Z,15.90
2023-03-02T17:05:55.740Z,14.53
2023-03-02T17:08:47.353Z,16.17
2023-03-02T17:11:38.909Z,16.07
2023-03-02T17:14:30.631Z,14.07
2023-03-02T17:17:22.091Z,14.65
2023-03-02T17:20:15.721Z,14.15
2023-03-02T17:23:07.516Z,15.15
2023-03-02T17:25:59.013Z,14.83
2023-03-02T17:28:56.317Z,13.83
2023-03-02T17:31:47.937Z,8.25
2023-03-02T17:34:39.285Z,14.28
2023-03-02T17:37:33.763Z,15.43
2023-03-02T17:40:25.852Z,13.68
2023-03-02T17:43:17.655Z,14.47
2023-03-02T17:46:21.077Z,15.35
2023-03-02T17:49:13.371Z,15.10
2023-03-02T17:52:06.463Z,12.53
2023-03-02T17:54:57.475Z,14.93
2023-03-02T17:57:49.069Z,14.53
2023-03-02T18:00:41.407Z,15.28
2023-03-02T18:03:32.857Z,15.45
2023-03-02T18:06:25.863Z,15.98
2023-03-02T18:09:17.754Z,16.07
2023-03-02T18:12:10.649Z,16.07
2023-03-02T18:15:02.513Z,17.77
2023-03-02T18:17:53.888Z,16.73
2023-03-02T18:20:45.745Z,15.68
2023-03-02T18:23:37.558Z,17.10
2023-03-02T18:26:32.231Z,18.10
2023-03-02T18:29:24.381Z,13.32
2023-03-02T18:32:16.390Z,16.42
2023-03-02T18:35:09.276Z,16.27
2023-03-02T18:38:00.683Z,16.80
2023-03-02T18:40:52.319Z,15.53
2023-03-02T18:43:44.629Z,16.52
2023-03-02T18:46:36.904Z,15.45
2023-03-02T18:49:28.760Z,16.35
2023-03-02T18:52:20.099Z,18.12
2023-03-02T18:55:12.793Z,18.23
2023-03-02T18:58:05.024Z,17.20
2023-03-02T19:00:57.263Z,14.60
2023-03-02T19:03:49.271Z,15.55
2023-03-02T19:06:40.942Z,17.20
2023-03-02T19:09:32.501Z,18.90
2023-03-02T19:12:23.994Z,19.48
2023-03-02T19:15:15.738Z,20.17
2023-03-02T19:18:07.357Z,17.85
2023-03-02T19:21:01.432Z,17.60
2023-03-02T19:23:52.352Z,19.80
2023-03-02T19:26:43.942Z,20.08
2023-03-02T19:29:35.496Z,17.50
2023-03-02T19:32:27.100Z,18.70
2023-03-02T19:35:19.373Z,18.27
2023-03-02T19:38:11.583Z,19.02
2023-03-02T19:41:03.207Z,19.95
2023-03-02T19:43:54.506Z,15.98
2023-03-02T19:46:46.039Z,17.15
2023-03-02T19:49:37.806Z,13.53
2023-03-02T19:52:29.427Z,14.15
2023-03-02T19:55:21.959Z,12.78
2023-03-02T19:58:16.739Z,19.87
2023-03-02T20:01:10.678Z,19.02
2023-03-02T20:04:00.947Z,17.80
2023-03-02T20:06:52.228Z,19.07
2023-03-02T20:09:43.896Z,20.32
2023-03-02T20:12:37.759Z,19.55
2023-03-02T20:15:31.203Z,16.02
2023-03-02T20:18:22.655Z,18.32
2023-03-02T20:21:17.974Z,12.20
2023-03-02T20:24:10.208Z,16.57
2023-03-02T20:27:16.800Z,18.52
2023-03-02T20:30:12.480Z,17.27
2023-03-02T20:37:41.898Z,18.80
2023-03-02T20:40:34.884Z,15.50
2023-03-02T20:43:28.462Z,19.40
2023-03-02T20:46:23.956Z,17.32
2023-03-02T20:49:16.787Z,19.23
2023-03-02T20:52:09.551Z,18.87
2023-03-02T20:55:01.979Z,15.03
2023-03-02T20:58:07.975Z,20.05
2023-03-02T21:00:56.041Z,17.75
2023-03-02T21:04:07.136Z,18.98
2023-03-02T21:07:00.146Z,17.95
2023-03-02T21:09:52.151Z,18.12
2023-03-02T21:12:49.081Z,17.45
2023-03-02T21:15:41.399Z,18.80
2023-03-02T21:18:34.672Z,18.60
2023-03-02T21:21:40.741Z,18.30
2023-03-02T21:24:20.949Z,18.27
2023-03-02T21:27:12.729Z,19.90
2023-03-02T21:30:06.380Z,18.65
2023-03-02T21:33:00.392Z,17.95
2023-03-02T21:35:52.253Z,17.87
2023-03-02T21:38:44.670Z,18.92
2023-03-02T21:41:37.218Z,19.00
2023-03-02T21:44:28.845Z,19.20
2023-03-02T21:47:21.823Z,18.07
2023-03-02T21:53:03.544Z,19.42
2023-03-02T21:55:55.232Z,18.12
2023-03-02T21:58:47.438Z,17.85
2023-03-02T22:01:39.394Z,18.25
2023-03-02T22:04:39.023Z,15.98
2023-03-02T22:07:35.289Z,19.15
2023-03-02T22:10:30.694Z,18.50
2023-03-02T22:13:25.757Z,14.40
2023-03-02T22:19:13.047Z,12.45
2023-03-02T22:22:08.969Z,20.00
2023-03-02T22:25:00.240Z,20.00
2023-03-02T22:27:51.774Z,19.07
2023-03-02T22:30:43.167Z,14.23
2023-03-02T22:33:36.837Z,19.90
2023-03-02T22:36:28.431Z,19.55
2023-03-02T22:39:24.157Z,18.77
2023-03-02T22:42:18.553Z,20.17
2023-03-02T22:45:15.569Z,18.70
2023-03-02T22:48:14.835Z,20.17
2023-03-02T22:51:14.011Z,20.37
2023-03-02T22:54:08.989Z,19.98
2023-03-02T22:57:00.523Z,20.12
2023-03-02T23:00:05.836Z,20.25
2023-03-02T23:02:58.516Z,20.35
2023-03-02T23:05:51.952Z,18.17
2023-03-02T23:08:45.343Z,19.73
2023-03-02T23:28:07.025Z,19.27
2023-03-02T23:30:58.251Z,20.40
2023-03-02T23:33:50.140Z,19.00
2023-03-02T23:36:42.006Z,20.82
2023-03-02T23:39:33.631Z,19.75
2023-03-02T23:42:25.289Z,20.55
2023-03-02T23:45:16.968Z,20.48
2023-03-02T23:48:08.636Z,20.90
2023-03-02T23:50:59.992Z,20.30
2023-03-02T23:53:51.566Z,20.20
2023-03-02T23:56:43.180Z,22.02
2023-03-02T23:59:34.779Z,21.20
